createdAt,value
2022-09-07T00:02:13.286Z,1.70
2022-09-07T00:04:40.322Z,1.80
2022-09-07T00:07:07.209Z,2.23
2022-09-07T00:09:34.029Z,2.20
2022-09-07T00:12:00.892Z,2.20
2022-09-07T00:14:27.932Z,2.27
2022-09-07T00:16:54.763Z,2.40
2022-09-07T00:19:22.674Z,2.30
2022-09-07T00:21:49.476Z,2.23
2022-09-07T00:24:16.290Z,2.23
2022-09-07T00:26:43.197Z,2.03
2022-09-07T00:29:11.610Z,2.10
2022-09-07T00:31:38.470Z,1.83
2022-09-07T00:34:07.289Z,2.10
2022-09-07T00:36:34.196Z,1.97
2022-09-07T00:39:01.193Z,1.80
2022-09-07T00:41:29.087Z,1.83
2022-09-07T00:44:19.970Z,2.37
2022-09-07T00:46:47.848Z,1.70
2022-09-07T00:49:21.228Z,1.73
2022-09-07T00:51:53.435Z,2.17
2022-09-07T00:54:39.771Z,1.60
2022-09-07T00:57:07.442Z,1.60
2022-09-07T00:59:43.762Z,1.50
2022-09-07T01:02:12.249Z,1.40
2022-09-07T01:04:39.609Z,1.60
2022-09-07T01:07:06.878Z,1.37
2022-09-07T01:09:33.926Z,1.40
2022-09-07T01:12:02.183Z,1.50
2022-09-07T01:14:41.113Z,1.30
2022-09-07T01:17:45.874Z,1.00
2022-09-07T01:20:30.973Z,1.10
2022-09-07T01:23:00.570Z,1.03
2022-09-07T01:25:59.913Z,1.40
2022-09-07T01:28:33.529Z,1.20
2022-09-07T01:31:19.609Z,1.07
2022-09-07T01:34:09.903Z,1.10
2022-09-07T01:36:56.505Z,0.97
2022-09-07T01:39:36.851Z,1.17
2022-09-07T01:42:12.292Z,1.20
2022-09-07T01:45:04.221Z,1.00
2022-09-07T01:47:47.850Z,1.10
2022-09-07T01:50:20.461Z,1.13
2022-09-07T01:52:56.558Z,1.03
2022-09-07T01:55:46.446Z,1.20
2022-09-07T01:58:37.213Z,1.10
2022-09-07T02:01:12.655Z,1.50
2022-09-07T02:03:47.084Z,1.10
2022-09-07T02:06:18.828Z,1.30
2022-09-07T02:08:52.762Z,1.03
2022-09-07T02:11:37.106Z,1.10
2022-09-07T02:14:10.196Z,0.90
2022-09-07T02:16:45.030Z,1.07
2022-09-07T02:19:16.872Z,0.97
2022-09-07T02:21:51.505Z,1.27
2022-09-07T02:24:35.246Z,1.40
2022-09-07T02:27:07.919Z,1.70
2022-09-07T02:29:35.414Z,1.63
2022-09-07T02:32:03.982Z,1.60
2022-09-07T02:34:31.839Z,1.70
2022-09-07T02:37:02.007Z,1.50
2022-09-07T02:39:28.952Z,1.70
2022-09-07T02:41:55.857Z,1.77
2022-09-07T02:44:26.805Z,1.87
2022-09-07T02:47:02.791Z,1.47
2022-09-07T02:49:32.583Z,1.57
2022-09-07T02:52:18.421Z,1.33
2022-09-07T02:55:14.508Z,1.20
2022-09-07T02:57:56.241Z,1.23
2022-09-07T03:00:26.415Z,1.10
2022-09-07T03:03:15.756Z,1.50
2022-09-07T03:05:57.478Z,1.20
2022-09-07T03:08:34.571Z,1.23
2022-09-07T03:11:03.624Z,1.33
2022-09-07T03:13:30.813Z,1.50
2022-09-07T03:15:57.747Z,1.50
2022-09-07T03:18:25.984Z,1.93
2022-09-07T03:20:53.200Z,1.67
2022-09-07T03:23:20.132Z,1.70
2022-09-07T03:25:49.947Z,2.10
2022-09-07T03:28:16.854Z,1.87
2022-09-07T03:30:47.063Z,1.73
2022-09-07T03:33:17.477Z,1.60
2022-09-07T03:35:56.453Z,1.47
2022-09-07T03:38:23.266Z,1.40
2022-09-07T03:41:05.870Z,1.20
2022-09-07T03:43:33.402Z,1.30
2022-09-07T03:46:05.932Z,1.50
2022-09-07T03:48:34.403Z,1.10
2022-09-07T03:51:06.638Z,1.20
2022-09-07T03:53:35.647Z,1.33
2022-09-07T03:56:05.923Z,1.40
2022-09-07T03:58:34.271Z,1.77
2022-09-07T04:01:11.759Z,1.60
2022-09-07T04:03:39.559Z,1.77
2022-09-07T04:06:06.645Z,1.90
2022-09-07T04:08:37.188Z,1.60
2022-09-07T04:11:15.236Z,1.67
2022-09-07T04:13:42.837Z,1.70
2022-09-07T04:16:22.238Z,1.63
2022-09-07T04:18:50.358Z,1.30
2022-09-07T04:21:18.495Z,1.30
2022-09-07T04:23:45.815Z,1.23
2022-09-07T04:26:24.084Z,1.60
2022-09-07T04:28:51.532Z,1.50
2022-09-07T04:31:20.482Z,1.57
2022-09-07T04:33:48.839Z,1.27
2022-09-07T04:36:17.024Z,0.90
2022-09-07T04:38:44.402Z,1.40
2022-09-07T04:41:18.761Z,1.30
2022-09-07T04:43:46.784Z,1.20
2022-09-07T04:46:20.293Z,1.50
2022-09-07T04:48:51.588Z,1.70
2022-09-07T04:51:20.061Z,1.23
2022-09-07T04:53:50.913Z,1.73
2022-09-07T04:56:19.083Z,1.37
2022-09-07T04:58:46.824Z,1.30
2022-09-07T05:01:17.387Z,1.50
2022-09-07T05:03:45.140Z,1.40
2022-09-07T05:06:14.044Z,1.67
2022-09-07T05:08:43.865Z,1.50
2022-09-07T05:11:12.836Z,1.53
2022-09-07T05:13:40.095Z,1.27
2022-09-07T05:16:14.947Z,1.30
2022-09-07T05:18:42.476Z,1.10
2022-09-07T05:21:10.839Z,1.10
2022-09-07T05:23:37.740Z,1.07
2022-09-07T05:26:05.824Z,1.30
2022-09-07T05:28:34.238Z,1.40
2022-09-07T05:36:34.460Z,1.53
2022-09-07T05:39:01.374Z,1.40
2022-09-07T05:41:28.664Z,1.57
2022-09-07T05:46:43.188Z,1.57
2022-09-07T05:49:10.303Z,2.07
2022-09-07T05:51:37.344Z,1.97
2022-09-07T05:54:04.431Z,1.90
2022-09-07T05:56:35.228Z,1.50
2022-09-07T05:59:02.060Z,1.77
2022-09-07T06:01:29.171Z,1.33
2022-09-07T06:03:55.991Z,1.70
2022-09-07T06:06:22.783Z,1.90
2022-09-07T06:08:53.841Z,2.17
2022-09-07T06:11:23.164Z,2.23
2022-09-07T06:13:50.736Z,1.80
2022-09-07T06:16:18.782Z,2.73
2022-09-07T06:18:47.425Z,1.83
2022-09-07T06:21:19.742Z,1.83
2022-09-07T06:23:47.804Z,1.70
2022-09-07T06:26:16.442Z,1.80
2022-09-07T06:28:48.834Z,2.00
2022-09-07T06:31:19.472Z,1.60
2022-09-07T06:33:50.380Z,1.93
2022-09-07T06:36:20.018Z,1.90
2022-09-07T06:38:48.046Z,1.87
2022-09-07T06:44:05.836Z,1.80
2022-09-07T06:49:19.843Z,1.90
2022-09-07T06:51:46.650Z,1.70
2022-09-07T06:57:00.292Z,1.73
2022-09-07T06:59:27.082Z,2.10
2022-09-07T07:01:54.250Z,1.60
2022-09-07T07:04:21.100Z,1.87
2022-09-07T07:06:47.951Z,1.57
2022-09-07T07:09:15.062Z,1.67
2022-09-07T07:11:43.595Z,1.70
2022-09-07T07:14:17.368Z,1.67
2022-09-07T07:16:45.548Z,1.70
2022-09-07T07:19:12.955Z,1.70
2022-09-07T07:22:05.537Z,1.60
2022-09-07T07:24:27.367Z,1.58
2022-09-07T07:26:54.329Z,1.58
2022-09-07T07:29:23.902Z,1.80
2022-09-07T07:31:55.389Z,1.40
2022-09-07T07:34:22.413Z,1.60
2022-09-07T07:36:49.540Z,1.58
2022-09-07T07:42:05.944Z,1.55
2022-09-07T07:44:33.273Z,1.90
2022-09-07T07:47:00.308Z,1.58
2022-09-07T07:49:27.533Z,1.35
2022-09-07T07:54:45.297Z,1.38
2022-09-07T07:57:12.355Z,1.25
2022-09-07T07:59:39.468Z,1.48
2022-09-07T08:02:12.358Z,1.42
2022-09-07T08:04:39.333Z,1.48
2022-09-07T08:07:10.673Z,1.50
2022-09-07T08:09:42.479Z,1.50
2022-09-07T08:12:11.339Z,1.50
2022-09-07T08:14:41.144Z,1.63
2022-09-07T08:17:10.674Z,1.50
2022-09-07T08:19:37.765Z,1.63
2022-09-07T08:22:05.338Z,1.73
2022-09-07T08:24:32.428Z,1.60
2022-09-07T08:26:59.483Z,1.77
2022-09-07T08:29:27.205Z,1.60
2022-09-07T08:31:55.134Z,1.58
2022-09-07T08:34:22.555Z,1.45
2022-09-07T08:36:49.326Z,1.50
2022-09-07T08:39:16.479Z,1.63
2022-09-07T08:42:11.094Z,1.65
2022-09-07T08:44:37.841Z,1.98
2022-09-07T08:47:36.215Z,1.88
2022-09-07T08:50:26.601Z,1.85
2022-09-07T08:52:56.679Z,1.83
2022-09-07T08:55:26.924Z,1.92
2022-09-07T08:58:47.630Z,1.60
2022-09-07T09:01:33.755Z,1.58
2022-09-07T09:04:18.809Z,1.60
2022-09-07T09:07:00.039Z,1.60
2022-09-07T09:09:48.620Z,1.90
2022-09-07T09:12:37.712Z,2.00
2022-09-07T09:15:22.730Z,1.90
2022-09-07T09:18:03.376Z,1.63
2022-09-07T09:20:50.450Z,1.55
2022-09-07T09:23:19.243Z,1.77
2022-09-07T09:25:53.923Z,1.92
2022-09-07T09:28:21.593Z,1.83
2022-09-07T09:30:48.620Z,2.00
2022-09-07T09:33:28.957Z,2.05
2022-09-07T09:35:58.976Z,1.70
2022-09-07T09:38:40.247Z,1.83
2022-09-07T09:41:07.988Z,1.90
2022-09-07T09:43:52.665Z,1.60
2022-09-07T09:46:40.014Z,1.80
2022-09-07T09:49:17.948Z,1.60
2022-09-07T09:54:53.850Z,1.77
2022-09-07T09:59:04.819Z,1.90
2022-09-07T10:00:34.778Z,1.48
2022-09-07T10:06:18.720Z,1.98
2022-09-07T10:09:02.258Z,2.08
2022-09-07T10:12:09.053Z,1.77
2022-09-07T10:14:43.706Z,1.70
2022-09-07T10:17:18.249Z,1.50
2022-09-07T10:19:45.098Z,1.80
2022-09-07T10:22:43.437Z,1.92
2022-09-07T10:25:39.714Z,1.77
2022-09-07T10:28:19.731Z,1.98
2022-09-07T10:30:49.481Z,1.65
2022-09-07T10:36:52.712Z,1.90
2022-09-07T10:39:27.748Z,1.83
2022-09-07T10:42:10.091Z,1.90
2022-09-07T10:44:55.751Z,1.80
2022-09-07T10:47:48.733Z,2.30
2022-09-07T10:50:29.884Z,1.77
2022-09-07T10:53:39.479Z,1.90
2022-09-07T10:56:09.108Z,1.65
2022-09-07T10:59:01.802Z,1.50
2022-09-07T11:01:57.753Z,1.83
2022-09-07T11:05:05.982Z,1.88
2022-09-07T11:07:52.341Z,1.58
2022-09-07T11:10:28.979Z,1.63
2022-09-07T11:13:00.236Z,2.00
2022-09-07T11:15:40.282Z,1.80
2022-09-07T11:18:40.968Z,1.63
2022-09-07T11:21:14.646Z,1.45
2022-09-07T11:23:46.843Z,1.65
2022-09-07T11:26:32.059Z,1.90
2022-09-07T11:29:32.244Z,1.70
2022-09-07T11:32:03.022Z,1.77
2022-09-07T11:34:38.300Z,1.65
2022-09-07T11:37:34.467Z,1.85
2022-09-07T11:40:11.996Z,1.50
2022-09-07T11:43:03.479Z,1.75
2022-09-07T11:45:40.678Z,1.48
2022-09-07T11:48:10.851Z,1.38
2022-09-07T11:50:43.688Z,1.25
2022-09-07T11:53:22.063Z,1.48
2022-09-07T11:55:56.478Z,1.33
2022-09-07T11:58:23.233Z,1.30
2022-09-07T12:01:23.314Z,1.60
2022-09-07T12:03:59.350Z,1.63
2022-09-07T12:06:44.537Z,2.03
2022-09-07T12:09:35.949Z,2.05
2022-09-07T12:12:29.428Z,1.40
2022-09-07T12:15:15.312Z,1.55
2022-09-07T12:18:15.116Z,1.50
2022-09-07T12:20:48.399Z,2.08
2022-09-07T12:23:15.126Z,1.70
2022-09-07T12:25:44.094Z,1.63
2022-09-07T12:28:37.746Z,1.75
2022-09-07T12:31:06.670Z,1.40
2022-09-07T12:33:38.526Z,1.52
2022-09-07T12:36:27.047Z,1.85
2022-09-07T12:39:04.324Z,1.35
2022-09-07T12:41:44.607Z,1.60
2022-09-07T12:44:28.557Z,1.73
2022-09-07T12:46:58.925Z,1.90
2022-09-07T12:49:34.495Z,1.60
2022-09-07T12:52:25.262Z,1.70
2022-09-07T12:55:23.513Z,1.55
2022-09-07T12:57:57.025Z,1.65
2022-09-07T13:00:59.662Z,1.70
2022-09-07T13:04:00.977Z,1.75
2022-09-07T13:07:06.590Z,1.50
2022-09-07T13:09:41.215Z,1.52
2022-09-07T13:15:43.905Z,1.70
2022-09-07T13:18:28.954Z,1.45
2022-09-07T13:21:08.315Z,1.70
2022-09-07T13:23:43.030Z,1.30
2022-09-07T13:26:32.020Z,1.50
2022-09-07T13:29:03.792Z,1.40
2022-09-07T13:31:48.379Z,1.42
2022-09-07T13:34:36.787Z,1.50
2022-09-07T13:37:06.364Z,1.70
2022-09-07T13:39:45.487Z,1.70
2022-09-07T13:42:33.980Z,1.60
2022-09-07T13:45:04.923Z,1.85
2022-09-07T13:47:37.747Z,1.95
2022-09-07T13:50:33.951Z,1.50
2022-09-07T13:53:29.340Z,1.50
2022-09-07T13:55:59.328Z,1.65
2022-09-07T13:58:48.231Z,1.42
2022-09-07T14:01:24.367Z,1.58
2022-09-07T14:04:02.229Z,1.40
2022-09-07T14:06:32.070Z,1.30
2022-09-07T14:09:05.301Z,1.15
2022-09-07T14:11:39.903Z,1.48
2022-09-07T14:14:12.951Z,1.20
2022-09-07T14:16:54.229Z,1.30
2022-09-07T14:19:24.603Z,1.33
2022-09-07T14:21:58.700Z,1.38
2022-09-07T14:24:31.312Z,1.50
2022-09-07T14:26:58.479Z,1.60
2022-09-07T14:29:30.110Z,1.40
2022-09-07T14:32:02.911Z,1.50
2022-09-07T14:34:36.107Z,1.38
2022-09-07T14:37:08.553Z,1.35
2022-09-07T14:39:39.413Z,1.27
2022-09-07T14:42:08.020Z,1.35
2022-09-07T14:44:42.858Z,1.70
2022-09-07T14:47:30.373Z,1.20
2022-09-07T14:50:05.731Z,1.45
2022-09-07T14:52:42.280Z,1.17
2022-09-07T14:55:25.940Z,1.40
2022-09-07T14:58:22.854Z,1.35
2022-09-07T15:03:56.991Z,1.38
2022-09-07T15:07:02.329Z,1.30
2022-09-07T15:09:36.006Z,1.55
2022-09-07T15:12:29.971Z,1.45
2022-09-07T15:15:26.723Z,1.40
2022-09-07T15:18:00.782Z,1.30
2022-09-07T15:20:29.736Z,1.30
2022-09-07T15:22:56.625Z,1.10
2022-09-07T15:25:23.627Z,1.15
2022-09-07T15:27:50.780Z,1.20
2022-09-07T15:30:18.634Z,1.80
2022-09-07T15:32:46.578Z,1.17
2022-09-07T15:35:13.600Z,1.30
2022-09-07T15:41:03.819Z,1.10
2022-09-07T15:43:29.862Z,1.60
2022-09-07T15:45:58.424Z,1.70
2022-09-07T15:48:28.472Z,1.60
2022-09-07T15:52:04.757Z,1.20
2022-09-07T15:54:12.744Z,1.52
2022-09-07T15:56:44.453Z,1.80
2022-09-07T15:59:32.222Z,1.23
2022-09-07T16:02:00.390Z,1.27
2022-09-07T16:04:27.568Z,1.38
2022-09-07T16:06:54.715Z,1.08
2022-09-07T16:09:22.118Z,1.15
2022-09-07T16:11:50.930Z,1.38
2022-09-07T16:14:19.196Z,1.35
2022-09-07T16:19:41.014Z,1.33
2022-09-07T16:22:08.992Z,0.90
2022-09-07T16:24:36.507Z,1.20
2022-09-07T16:27:03.525Z,1.20
2022-09-07T16:29:30.405Z,1.17
2022-09-07T16:34:44.962Z,1.02
2022-09-07T16:37:12.061Z,1.05
2022-09-07T16:39:39.794Z,1.30
2022-09-07T16:42:07.027Z,0.90
2022-09-07T16:44:35.080Z,1.10
2022-09-07T16:47:02.227Z,1.20
2022-09-07T16:49:29.016Z,0.82
2022-09-07T16:51:56.044Z,1.20
2022-09-07T16:54:22.909Z,1.20
2022-09-07T16:56:49.665Z,0.90
2022-09-07T16:59:18.209Z,1.00
2022-09-07T17:01:45.131Z,1.30
2022-09-07T17:04:12.320Z,0.95
2022-09-07T17:06:40.042Z,0.88
2022-09-07T17:09:07.579Z,1.02
2022-09-07T17:11:35.950Z,0.90
2022-09-07T17:14:04.950Z,0.90
2022-09-07T17:16:33.782Z,0.90
2022-09-07T17:21:53.738Z,1.90
2022-09-07T17:24:21.197Z,2.20
2022-09-07T17:26:48.231Z,2.05
2022-09-07T17:29:15.028Z,1.63
2022-09-07T17:34:30.373Z,1.50
2022-09-07T17:37:00.650Z,0.80
2022-09-07T17:39:28.129Z,0.93
2022-09-07T17:41:56.291Z,1.40
2022-09-07T17:44:23.528Z,1.10
2022-09-07T17:46:51.672Z,0.95
2022-09-07T17:49:18.965Z,1.13
2022-09-07T17:51:46.158Z,6.47
2022-09-07T17:54:15.656Z,20.10
2022-09-07T17:56:43.863Z,32.80
2022-09-07T18:01:59.468Z,29.00
2022-09-07T18:04:26.367Z,20.38
2022-09-07T18:06:54.523Z,15.60
2022-09-07T18:09:21.739Z,11.90
2022-09-07T18:11:49.639Z,8.05
2022-09-07T18:14:17.957Z,6.88
2022-09-07T18:16:46.821Z,5.75
2022-09-07T18:19:14.110Z,4.78
2022-09-07T18:21:43.047Z,4.28
2022-09-07T18:24:19.005Z,3.05
2022-09-07T18:26:51.798Z,3.30
2022-09-07T18:29:31.281Z,2.88
2022-09-07T18:32:00.345Z,2.10
2022-09-07T18:34:28.780Z,2.05
2022-09-07T18:36:55.855Z,1.80
2022-09-07T18:39:22.779Z,1.60
2022-09-07T18:41:49.537Z,1.88
2022-09-07T18:47:06.576Z,1.05
2022-09-07T18:49:33.579Z,1.20
2022-09-07T18:54:47.560Z,1.15
2022-09-07T18:57:15.433Z,1.10
2022-09-07T18:59:42.289Z,0.80
2022-09-07T19:02:10.672Z,1.00
2022-09-07T19:07:29.369Z,0.85
2022-09-07T19:09:57.140Z,0.98
2022-09-07T19:12:24.309Z,0.90
2022-09-07T19:14:51.289Z,1.23
2022-09-07T19:17:18.143Z,1.20
2022-09-07T19:19:44.997Z,0.90
2022-09-07T19:22:11.958Z,0.90
2022-09-07T19:24:38.677Z,0.80
2022-09-07T19:27:07.244Z,1.00
2022-09-07T19:29:34.135Z,0.73
2022-09-07T19:32:12.896Z,0.80
2022-09-07T19:34:42.077Z,0.75
2022-09-07T19:37:11.536Z,0.93
2022-09-07T19:39:38.789Z,0.93
2022-09-07T19:42:06.419Z,0.77
2022-09-07T19:44:33.614Z,1.03
2022-09-07T19:47:02.043Z,0.87
2022-09-07T19:49:29.073Z,1.00
2022-09-07T19:51:56.194Z,0.90
2022-09-07T19:54:23.040Z,0.80
2022-09-07T19:56:49.789Z,1.00
2022-09-07T19:59:19.292Z,0.90
2022-09-07T20:01:48.206Z,0.90
2022-09-07T20:04:20.635Z,1.07
2022-09-07T20:06:50.130Z,1.10
2022-09-07T20:09:18.740Z,1.03
2022-09-07T20:11:47.485Z,1.00
2022-09-07T20:14:15.912Z,0.83
2022-09-07T20:16:42.893Z,0.93
2022-09-07T20:19:14.319Z,1.00
2022-09-07T20:21:41.387Z,1.40
2022-09-07T20:24:08.196Z,1.10
2022-09-07T20:26:37.089Z,1.03
2022-09-07T20:29:26.882Z,1.20
2022-09-07T20:31:50.770Z,1.27
2022-09-07T20:34:17.607Z,0.93
2022-09-07T20:36:44.333Z,1.30
2022-09-07T20:39:16.458Z,1.00
2022-09-07T20:41:43.370Z,1.00
2022-09-07T20:44:10.517Z,1.40
2022-09-07T20:46:37.367Z,1.20
2022-09-07T20:49:05.157Z,0.80
2022-09-07T20:51:32.112Z,1.10
2022-09-07T20:53:59.074Z,1.17
2022-09-07T20:56:28.156Z,1.23
2022-09-07T20:58:57.253Z,1.70
2022-09-07T21:01:24.345Z,1.30
2022-09-07T21:03:54.061Z,1.00
2022-09-07T21:06:22.351Z,1.90
2022-09-07T21:08:50.523Z,1.60
2022-09-07T21:11:19.167Z,1.37
2022-09-07T21:13:47.599Z,1.30
2022-09-07T21:16:16.693Z,1.30
2022-09-07T21:18:44.756Z,1.20
2022-09-07T21:21:20.613Z,1.73
2022-09-07T21:23:48.152Z,1.43
2022-09-07T21:26:19.895Z,1.50
2022-09-07T21:28:48.041Z,1.40
2022-09-07T21:31:14.913Z,1.40
2022-09-07T21:33:42.239Z,1.37
2022-09-07T21:36:11.936Z,1.27
2022-09-07T21:38:40.722Z,1.50
2022-09-07T21:41:13.467Z,1.33
2022-09-07T21:43:40.548Z,1.57
2022-09-07T21:46:12.631Z,1.23
2022-09-07T21:48:40.169Z,1.33
2022-09-07T21:51:07.884Z,1.07
2022-09-07T21:53:35.157Z,1.07
2022-09-07T21:56:07.605Z,1.37
2022-09-07T21:58:35.776Z,1.60
2022-09-07T22:01:17.578Z,1.20
2022-09-07T22:03:47.238Z,1.40
2022-09-07T22:06:15.076Z,1.50
2022-09-07T22:08:42.682Z,2.00
2022-09-07T22:11:12.510Z,1.40
2022-09-07T22:13:40.312Z,1.30
2022-09-07T22:16:08.055Z,1.13
2022-09-07T22:18:37.751Z,1.33
2022-09-07T22:21:08.973Z,1.30
2022-09-07T22:23:38.627Z,1.40
2022-09-07T22:26:06.560Z,1.43
2022-09-07T22:28:34.033Z,2.00
2022-09-07T22:31:17.923Z,1.37
2022-09-07T22:33:46.855Z,1.80
2022-09-07T22:36:27.891Z,1.67
2022-09-07T22:38:57.311Z,1.90
2022-09-07T22:41:27.067Z,1.57
2022-09-07T22:43:54.873Z,1.73
2022-09-07T22:46:25.055Z,1.90
2022-09-07T22:48:54.327Z,2.10
2022-09-07T22:51:21.918Z,1.80
2022-09-07T22:53:51.118Z,2.37
2022-09-07T22:56:23.625Z,2.00
2022-09-07T22:58:53.538Z,2.00
2022-09-07T23:01:23.605Z,2.13
2022-09-07T23:03:50.899Z,1.60
2022-09-07T23:06:36.016Z,2.50
2022-09-07T23:09:06.828Z,1.77
2022-09-07T23:11:33.904Z,1.90
2022-09-07T23:14:03.680Z,1.50
2022-09-07T23:16:30.799Z,1.90
2022-09-07T23:18:58.833Z,1.70
2022-09-07T23:21:26.330Z,1.50
2022-09-07T23:23:55.399Z,1.60
2022-09-07T23:26:23.872Z,1.33
2022-09-07T23:28:52.591Z,1.80
2022-09-07T23:31:20.232Z,2.10
2022-09-07T23:33:47.600Z,2.20
2022-09-07T23:36:15.411Z,2.10
2022-09-07T23:38:42.198Z,1.90
2022-09-07T23:41:08.962Z,1.93
2022-09-07T23:43:35.989Z,1.83
2022-09-07T23:46:02.834Z,1.70
2022-09-07T23:48:29.606Z,1.50
2022-09-07T23:50:56.525Z,1.97
2022-09-07T23:53:23.752Z,2.00
2022-09-07T23:55:51.758Z,1.93
2022-09-07T23:58:19.402Z,1.93
